sensor_id;sensor_type;location;lat;lon;timestamp;P1;durP1;ratioP1;P2;durP2;ratioP2
78787;SDS011;68131;52.508;5.502;2023-04-15T00:01:41;8.90;;;3.78;;
78787;SDS011;68131;52.508;5.502;2023-04-15T00:04:10;6.22;;;4.15;;
78787;SDS011;68131;52.508;5.502;2023-04-15T00:06:39;4.95;;;3.65;;
78787;SDS011;68131;52.508;5.502;2023-04-15T00:09:10;6.00;;;3.83;;
78787;SDS011;68131;52.508;5.502;2023-04-15T00:11:40;6.78;;;3.05;;
78787;SDS011;68131;52.508;5.502;2023-04-15T00:14:09;5.35;;;3.55;;
78787;SDS011;68131;52.508;5.502;2023-04-15T00:16:38;6.10;;;3.22;;
78787;SDS011;68131;52.508;5.502;2023-04-15T00:19:07;6.55;;;3.22;;
78787;SDS011;68131;52.508;5.502;2023-04-15T00:21:36;6.82;;;3.35;;
78787;SDS011;68131;52.508;5.502;2023-04-15T00:24:05;5.60;;;3.42;;
78787;SDS011;68131;52.508;5.502;2023-04-15T00:26:37;11.77;;;3.95;;
78787;SDS011;68131;52.508;5.502;2023-04-15T00:29:06;6.60;;;3.65;;
78787;SDS011;68131;52.508;5.502;2023-04-15T00:31:35;5.65;;;3.70;;
78787;SDS011;68131;52.508;5.502;2023-04-15T00:34:04;6.78;;;3.28;;
78787;SDS011;68131;52.508;5.502;2023-04-15T00:36:34;5.28;;;3.60;;
78787;SDS011;68131;52.508;5.502;2023-04-15T00:39:03;7.85;;;3.65;;
78787;SDS011;68131;52.508;5.502;2023-04-15T00:41:32;4.75;;;3.72;;
78787;SDS011;68131;52.508;5.502;2023-04-15T00:44:06;7.90;;;3.92;;
78787;SDS011;68131;52.508;5.502;2023-04-15T00:46:36;5.80;;;2.92;;
78787;SDS011;68131;52.508;5.502;2023-04-15T00:49:06;5.53;;;3.53;;
78787;SDS011;68131;52.508;5.502;2023-04-15T00:51:35;3.92;;;3.20;;
78787;SDS011;68131;52.508;5.502;2023-04-15T00:54:06;8.38;;;3.85;;
78787;SDS011;68131;52.508;5.502;2023-04-15T00:56:36;5.95;;;3.42;;
78787;SDS011;68131;52.508;5.502;2023-04-15T00:59:09;4.95;;;3.03;;
78787;SDS011;68131;52.508;5.502;2023-04-15T01:01:39;5.40;;;3.95;;
78787;SDS011;68131;52.508;5.502;2023-04-15T01:04:09;5.90;;;3.33;;
78787;SDS011;68131;52.508;5.502;2023-04-15T01:06:38;5.53;;;4.10;;
78787;SDS011;68131;52.508;5.502;2023-04-15T01:09:07;4.13;;;3.00;;
78787;SDS011;68131;52.508;5.502;2023-04-15T01:11:38;6.68;;;3.08;;
78787;SDS011;68131;52.508;5.502;2023-04-15T01:14:10;7.03;;;2.88;;
78787;SDS011;68131;52.508;5.502;2023-04-15T01:16:39;6.40;;;2.60;;
78787;SDS011;68131;52.508;5.502;2023-04-15T01:19:10;5.85;;;3.40;;
78787;SDS011;68131;52.508;5.502;2023-04-15T01:21:39;5.25;;;2.45;;
78787;SDS011;68131;52.508;5.502;2023-04-15T01:24:09;5.03;;;2.90;;
78787;SDS011;68131;52.508;5.502;2023-04-15T01:26:41;7.53;;;3.58;;
78787;SDS011;68131;52.508;5.502;2023-04-15T01:29:11;4.53;;;2.35;;
78787;SDS011;68131;52.508;5.502;2023-04-15T01:31:43;10.77;;;2.88;;
78787;SDS011;68131;52.508;5.502;2023-04-15T01:34:18;4.88;;;2.15;;
78787;SDS011;68131;52.508;5.502;2023-04-15T01:36:47;3.05;;;2.15;;
78787;SDS011;68131;52.508;5.502;2023-04-15T01:39:16;7.32;;;3.00;;
78787;SDS011;68131;52.508;5.502;2023-04-15T01:41:48;4.20;;;2.72;;
78787;SDS011;68131;52.508;5.502;2023-04-15T01:44:17;3.58;;;2.90;;
78787;SDS011;68131;52.508;5.502;2023-04-15T01:46:46;6.85;;;2.58;;
78787;SDS011;68131;52.508;5.502;2023-04-15T01:49:15;5.97;;;2.67;;
78787;SDS011;68131;52.508;5.502;2023-04-15T01:51:44;5.40;;;3.00;;
78787;SDS011;68131;52.508;5.502;2023-04-15T01:54:14;5.03;;;2.95;;
78787;SDS011;68131;52.508;5.502;2023-04-15T01:56:43;5.32;;;3.65;;
78787;SDS011;68131;52.508;5.502;2023-04-15T01:59:15;7.00;;;3.50;;
78787;SDS011;68131;52.508;5.502;2023-04-15T02:01:44;5.85;;;2.40;;
78787;SDS011;68131;52.508;5.502;2023-04-15T02:04:13;7.25;;;3.08;;
78787;SDS011;68131;52.508;5.502;2023-04-15T02:06:43;6.55;;;3.47;;
78787;SDS011;68131;52.508;5.502;2023-04-15T02:09:13;8.13;;;3.83;;
78787;SDS011;68131;52.508;5.502;2023-04-15T02:11:44;8.75;;;3.60;;
78787;SDS011;68131;52.508;5.502;2023-04-15T02:14:16;6.47;;;4.05;;
78787;SDS011;68131;52.508;5.502;2023-04-15T02:16:46;6.80;;;3.72;;
78787;SDS011;68131;52.508;5.502;2023-04-15T02:19:15;6.47;;;4.18;;
78787;SDS011;68131;52.508;5.502;2023-04-15T02:21:44;9.40;;;4.05;;
78787;SDS011;68131;52.508;5.502;2023-04-15T02:24:16;6.78;;;4.00;;
78787;SDS011;68131;52.508;5.502;2023-04-15T02:26:45;5.07;;;3.08;;
78787;SDS011;68131;52.508;5.502;2023-04-15T02:29:17;5.93;;;4.25;;
78787;SDS011;68131;52.508;5.502;2023-04-15T02:31:47;7.68;;;3.85;;
78787;SDS011;68131;52.508;5.502;2023-04-15T02:34:16;8.23;;;3.75;;
78787;SDS011;68131;52.508;5.502;2023-04-15T02:36:46;7.57;;;3.65;;
78787;SDS011;68131;52.508;5.502;2023-04-15T02:39:19;5.53;;;3.40;;
78787;SDS011;68131;52.508;5.502;2023-04-15T02:41:48;6.57;;;3.80;;
78787;SDS011;68131;52.508;5.502;2023-04-15T02:44:21;7.78;;;3.90;;
78787;SDS011;68131;52.508;5.502;2023-04-15T02:46:53;4.88;;;3.72;;
78787;SDS011;68131;52.508;5.502;2023-04-15T02:49:23;5.30;;;3.95;;
78787;SDS011;68131;52.508;5.502;2023-04-15T02:51:54;5.38;;;3.90;;
78787;SDS011;68131;52.508;5.502;2023-04-15T02:54:24;5.30;;;3.78;;
78787;SDS011;68131;52.508;5.502;2023-04-15T02:56:54;6.00;;;3.88;;
78787;SDS011;68131;52.508;5.502;2023-04-15T02:59:26;6.88;;;3.78;;
78787;SDS011;68131;52.508;5.502;2023-04-15T03:01:55;8.35;;;3.88;;
78787;SDS011;68131;52.508;5.502;2023-04-15T03:04:25;8.20;;;4.07;;
78787;SDS011;68131;52.508;5.502;2023-04-15T03:06:55;8.82;;;4.32;;
78787;SDS011;68131;52.508;5.502;2023-04-15T03:09:25;9.52;;;4.40;;
78787;SDS011;68131;52.508;5.502;2023-04-15T03:11:55;8.63;;;4.30;;
78787;SDS011;68131;52.508;5.502;2023-04-15T03:14:26;3.75;;;3.05;;
78787;SDS011;68131;52.508;5.502;2023-04-15T03:16:56;7.18;;;4.55;;
78787;SDS011;68131;52.508;5.502;2023-04-15T03:19:25;5.18;;;3.92;;
78787;SDS011;68131;52.508;5.502;2023-04-15T03:21:54;9.00;;;5.25;;
78787;SDS011;68131;52.508;5.502;2023-04-15T03:24:24;6.82;;;3.95;;
78787;SDS011;68131;52.508;5.502;2023-04-15T03:26:55;8.25;;;4.97;;
78787;SDS011;68131;52.508;5.502;2023-04-15T03:29:29;6.20;;;3.55;;
78787;SDS011;68131;52.508;5.502;2023-04-15T03:31:58;8.05;;;5.05;;
78787;SDS011;68131;52.508;5.502;2023-04-15T03:34:31;7.95;;;5.55;;
78787;SDS011;68131;52.508;5.502;2023-04-15T03:37:00;6.60;;;4.10;;
78787;SDS011;68131;52.508;5.502;2023-04-15T03:39:29;6.22;;;2.95;;
78787;SDS011;68131;52.508;5.502;2023-04-15T03:41:58;6.82;;;3.88;;
78787;SDS011;68131;52.508;5.502;2023-04-15T03:44:31;7.25;;;4.47;;
78787;SDS011;68131;52.508;5.502;2023-04-15T03:47:00;7.30;;;4.43;;
78787;SDS011;68131;52.508;5.502;2023-04-15T03:49:29;8.52;;;5.22;;
78787;SDS011;68131;52.508;5.502;2023-04-15T03:51:58;9.95;;;5.47;;
78787;SDS011;68131;52.508;5.502;2023-04-15T03:54:28;8.50;;;4.70;;
78787;SDS011;68131;52.508;5.502;2023-04-15T03:56:57;7.47;;;4.78;;
78787;SDS011;68131;52.508;5.502;2023-04-15T03:59:31;7.32;;;5.05;;
78787;SDS011;68131;52.508;5.502;2023-04-15T04:02:00;6.13;;;3.72;;
78787;SDS011;68131;52.508;5.502;2023-04-15T04:04:29;7.35;;;4.60;;
78787;SDS011;68131;52.508;5.502;2023-04-15T04:06:58;9.70;;;5.93;;
78787;SDS011;68131;52.508;5.502;2023-04-15T04:09:27;10.05;;;5.53;;
78787;SDS011;68131;52.508;5.502;2023-04-15T04:11:56;11.52;;;5.65;;
78787;SDS011;68131;52.508;5.502;2023-04-15T04:14:25;8.77;;;4.97;;
78787;SDS011;68131;52.508;5.502;2023-04-15T04:16:57;9.85;;;4.57;;
78787;SDS011;68131;52.508;5.502;2023-04-15T04:19:26;7.20;;;4.93;;
78787;SDS011;68131;52.508;5.502;2023-04-15T04:21:55;12.43;;;5.57;;
78787;SDS011;68131;52.508;5.502;2023-04-15T04:24:25;7.97;;;5.20;;
78787;SDS011;68131;52.508;5.502;2023-04-15T04:26:54;7.25;;;5.25;;
78787;SDS011;68131;52.508;5.502;2023-04-15T04:29:23;9.68;;;5.75;;
78787;SDS011;68131;52.508;5.502;2023-04-15T04:31:52;6.90;;;4.53;;
78787;SDS011;68131;52.508;5.502;2023-04-15T04:34:24;7.65;;;4.88;;
78787;SDS011;68131;52.508;5.502;2023-04-15T04:36:53;8.80;;;4.70;;
78787;SDS011;68131;52.508;5.502;2023-04-15T04:39:22;10.15;;;5.80;;
78787;SDS011;68131;52.508;5.502;2023-04-15T04:41:51;7.10;;;4.30;;
78787;SDS011;68131;52.508;5.502;2023-04-15T04:44:20;9.73;;;5.50;;
78787;SDS011;68131;52.508;5.502;2023-04-15T04:46:49;5.80;;;4.28;;
78787;SDS011;68131;52.508;5.502;2023-04-15T04:49:19;7.90;;;3.42;;
78787;SDS011;68131;52.508;5.502;2023-04-15T04:51:50;7.75;;;5.03;;
78787;SDS011;68131;52.508;5.502;2023-04-15T04:54:20;9.57;;;6.03;;
78787;SDS011;68131;52.508;5.502;2023-04-15T04:56:49;8.30;;;5.28;;
78787;SDS011;68131;52.508;5.502;2023-04-15T04:59:18;11.27;;;5.35;;
78787;SDS011;68131;52.508;5.502;2023-04-15T05:01:47;8.15;;;4.95;;
78787;SDS011;68131;52.508;5.502;2023-04-15T05:04:16;6.78;;;4.22;;
78787;SDS011;68131;52.508;5.502;2023-04-15T05:06:45;7.25;;;4.63;;
78787;SDS011;68131;52.508;5.502;2023-04-15T05:09:17;9.20;;;5.65;;
78787;SDS011;68131;52.508;5.502;2023-04-15T05:11:46;9.38;;;4.82;;
78787;SDS011;68131;52.508;5.502;2023-04-15T05:14:16;8.85;;;5.60;;
78787;SDS011;68131;52.508;5.502;2023-04-15T05:16:45;8.55;;;5.15;;
78787;SDS011;68131;52.508;5.502;2023-04-15T05:19:14;9.50;;;5.22;;
78787;SDS011;68131;52.508;5.502;2023-04-15T05:21:43;7.43;;;4.63;;
78787;SDS011;68131;52.508;5.502;2023-04-15T05:24:12;7.55;;;4.85;;
78787;SDS011;68131;52.508;5.502;2023-04-15T05:26:44;9.13;;;5.47;;
78787;SDS011;68131;52.508;5.502;2023-04-15T05:29:13;8.13;;;5.03;;
78787;SDS011;68131;52.508;5.502;2023-04-15T05:31:42;8.52;;;5.13;;
78787;SDS011;68131;52.508;5.502;2023-04-15T05:34:11;10.23;;;4.63;;
78787;SDS011;68131;52.508;5.502;2023-04-15T05:36:41;8.50;;;4.40;;
78787;SDS011;68131;52.508;5.502;2023-04-15T05:39:10;8.93;;;5.40;;
78787;SDS011;68131;52.508;5.502;2023-04-15T05:41:39;8.52;;;4.57;;
78787;SDS011;68131;52.508;5.502;2023-04-15T05:44:11;7.30;;;4.80;;
78787;SDS011;68131;52.508;5.502;2023-04-15T05:46:40;7.00;;;4.63;;
78787;SDS011;68131;52.508;5.502;2023-04-15T05:49:09;9.15;;;5.53;;
78787;SDS011;68131;52.508;5.502;2023-04-15T05:51:38;7.32;;;5.15;;
78787;SDS011;68131;52.508;5.502;2023-04-15T05:54:07;7.07;;;3.95;;
78787;SDS011;68131;52.508;5.502;2023-04-15T05:56:36;8.05;;;4.38;;
78787;SDS011;68131;52.508;5.502;2023-04-15T05:59:06;7.22;;;4.60;;
78787;SDS011;68131;52.508;5.502;2023-04-15T06:01:38;7.60;;;4.78;;
78787;SDS011;68131;52.508;5.502;2023-04-15T06:04:07;8.05;;;3.95;;
78787;SDS011;68131;52.508;5.502;2023-04-15T06:06:36;9.55;;;5.93;;
78787;SDS011;68131;52.508;5.502;2023-04-15T06:09:05;8.82;;;4.57;;
78787;SDS011;68131;52.508;5.502;2023-04-15T06:11:34;6.63;;;4.38;;
78787;SDS011;68131;52.508;5.502;2023-04-15T06:14:05;8.80;;;5.07;;
78787;SDS011;68131;52.508;5.502;2023-04-15T06:16:34;9.73;;;5.97;;
78787;SDS011;68131;52.508;5.502;2023-04-15T06:19:07;10.15;;;4.85;;
78787;SDS011;68131;52.508;5.502;2023-04-15T06:21:37;9.07;;;5.55;;
78787;SDS011;68131;52.508;5.502;2023-04-15T06:24:06;8.95;;;5.40;;
78787;SDS011;68131;52.508;5.502;2023-04-15T06:26:35;9.30;;;5.82;;
78787;SDS011;68131;52.508;5.502;2023-04-15T06:29:04;8.98;;;5.63;;
78787;SDS011;68131;52.508;5.502;2023-04-15T06:31:33;11.55;;;6.38;;
78787;SDS011;68131;52.508;5.502;2023-04-15T06:34:05;7.88;;;5.28;;
78787;SDS011;68131;52.508;5.502;2023-04-15T06:36:34;7.60;;;5.28;;
78787;SDS011;68131;52.508;5.502;2023-04-15T06:39:03;10.23;;;6.05;;
78787;SDS011;68131;52.508;5.502;2023-04-15T06:41:33;9.32;;;4.85;;
78787;SDS011;68131;52.508;5.502;2023-04-15T06:44:03;10.43;;;6.53;;
78787;SDS011;68131;52.508;5.502;2023-04-15T06:46:32;11.15;;;5.82;;
78787;SDS011;68131;52.508;5.502;2023-04-15T06:49:01;12.55;;;6.35;;
78787;SDS011;68131;52.508;5.502;2023-04-15T06:51:33;7.40;;;4.35;;
78787;SDS011;68131;52.508;5.502;2023-04-15T06:54:03;8.35;;;5.32;;
78787;SDS011;68131;52.508;5.502;2023-04-15T06:56:32;10.80;;;5.80;;
78787;SDS011;68131;52.508;5.502;2023-04-15T06:59:02;8.18;;;4.95;;
78787;SDS011;68131;52.508;5.502;2023-04-15T07:01:31;8.15;;;4.40;;
78787;SDS011;68131;52.508;5.502;2023-04-15T07:04:00;12.38;;;5.38;;
78787;SDS011;68131;52.508;5.502;2023-04-15T07:06:32;9.93;;;4.63;;
78787;SDS011;68131;52.508;5.502;2023-04-15T07:09:01;6.32;;;3.83;;
78787;SDS011;68131;52.508;5.502;2023-04-15T07:11:30;8.38;;;4.60;;
78787;SDS011;68131;52.508;5.502;2023-04-15T07:14:01;10.07;;;5.00;;
78787;SDS011;68131;52.508;5.502;2023-04-15T07:16:31;7.15;;;4.03;;
78787;SDS011;68131;52.508;5.502;2023-04-15T07:19:00;10.27;;;6.07;;
78787;SDS011;68131;52.508;5.502;2023-04-15T07:21:32;12.00;;;5.72;;
78787;SDS011;68131;52.508;5.502;2023-04-15T07:24:01;9.50;;;4.82;;
78787;SDS011;68131;52.508;5.502;2023-04-15T07:26:30;14.57;;;6.60;;
78787;SDS011;68131;52.508;5.502;2023-04-15T07:28:59;11.70;;;5.97;;
78787;SDS011;68131;52.508;5.502;2023-04-15T07:31:28;17.25;;;7.85;;
78787;SDS011;68131;52.508;5.502;2023-04-15T07:33:57;17.02;;;9.10;;
78787;SDS011;68131;52.508;5.502;2023-04-15T07:36:27;15.95;;;8.38;;
78787;SDS011;68131;52.508;5.502;2023-04-15T07:38:59;14.07;;;7.13;;
78787;SDS011;68131;52.508;5.502;2023-04-15T07:41:28;16.38;;;7.25;;
78787;SDS011;68131;52.508;5.502;2023-04-15T07:43:58;13.23;;;6.25;;
78787;SDS011;68131;52.508;5.502;2023-04-15T07:46:27;12.18;;;6.45;;
78787;SDS011;68131;52.508;5.502;2023-04-15T07:48:56;13.18;;;6.28;;
78787;SDS011;68131;52.508;5.502;2023-04-15T07:51:26;18.35;;;8.18;;
78787;SDS011;68131;52.508;5.502;2023-04-15T07:53:55;13.25;;;6.68;;
78787;SDS011;68131;52.508;5.502;2023-04-15T07:56:27;14.88;;;8.00;;
78787;SDS011;68131;52.508;5.502;2023-04-15T07:58:57;8.82;;;5.93;;
78787;SDS011;68131;52.508;5.502;2023-04-15T08:01:26;11.20;;;6.28;;
78787;SDS011;68131;52.508;5.502;2023-04-15T08:03:56;9.23;;;5.63;;
78787;SDS011;68131;52.508;5.502;2023-04-15T08:06:25;9.65;;;5.10;;
78787;SDS011;68131;52.508;5.502;2023-04-15T08:08:54;15.13;;;7.63;;
78787;SDS011;68131;52.508;5.502;2023-04-15T08:11:23;13.80;;;6.82;;
78787;SDS011;68131;52.508;5.502;2023-04-15T08:13:56;11.80;;;6.30;;
78787;SDS011;68131;52.508;5.502;2023-04-15T08:16:25;9.80;;;6.38;;
78787;SDS011;68131;52.508;5.502;2023-04-15T08:18:54;7.07;;;4.25;;
78787;SDS011;68131;52.508;5.502;2023-04-15T08:21:24;9.45;;;4.45;;
78787;SDS011;68131;52.508;5.502;2023-04-15T08:23:55;8.73;;;4.88;;
78787;SDS011;68131;52.508;5.502;2023-04-15T08:26:27;9.45;;;4.43;;
78787;SDS011;68131;52.508;5.502;2023-04-15T08:28:56;4.07;;;2.60;;
78787;SDS011;68131;52.508;5.502;2023-04-15T08:31:26;3.25;;;2.50;;
78787;SDS011;68131;52.508;5.502;2023-04-15T08:33:57;4.07;;;2.60;;
78787;SDS011;68131;52.508;5.502;2023-04-15T08:36:26;3.00;;;2.38;;
78787;SDS011;68131;52.508;5.502;2023-04-15T08:38:56;2.65;;;1.90;;
78787;SDS011;68131;52.508;5.502;2023-04-15T08:41:30;3.55;;;1.77;;
78787;SDS011;68131;52.508;5.502;2023-04-15T08:44:08;5.07;;;2.85;;
78787;SDS011;68131;52.508;5.502;2023-04-15T08:46:38;6.15;;;2.22;;
78787;SDS011;68131;52.508;5.502;2023-04-15T08:49:09;6.75;;;3.72;;
78787;SDS011;68131;52.508;5.502;2023-04-15T08:51:39;4.22;;;2.58;;
78787;SDS011;68131;52.508;5.502;2023-04-15T08:54:09;6.00;;;3.55;;
78787;SDS011;68131;52.508;5.502;2023-04-15T08:56:41;5.85;;;3.08;;
78787;SDS011;68131;52.508;5.502;2023-04-15T08:59:10;5.00;;;3.58;;
78787;SDS011;68131;52.508;5.502;2023-04-15T09:01:41;7.55;;;3.75;;
78787;SDS011;68131;52.508;5.502;2023-04-15T09:04:11;5.88;;;3.50;;
78787;SDS011;68131;52.508;5.502;2023-04-15T09:06:40;4.78;;;3.13;;
78787;SDS011;68131;52.508;5.502;2023-04-15T09:09:09;7.78;;;3.78;;
78787;SDS011;68131;52.508;5.502;2023-04-15T09:11:42;6.20;;;4.07;;
78787;SDS011;68131;52.508;5.502;2023-04-15T09:14:11;4.78;;;2.80;;
78787;SDS011;68131;52.508;5.502;2023-04-15T09:19:25;4.45;;;3.08;;
78787;SDS011;68131;52.508;5.502;2023-04-15T09:21:56;5.07;;;2.92;;
78787;SDS011;68131;52.508;5.502;2023-04-15T09:24:32;5.43;;;3.60;;
78787;SDS011;68131;52.508;5.502;2023-04-15T09:27:08;5.45;;;2.10;;
78787;SDS011;68131;52.508;5.502;2023-04-15T09:29:37;6.80;;;3.25;;
78787;SDS011;68131;52.508;5.502;2023-04-15T09:32:09;6.50;;;2.88;;
78787;SDS011;68131;52.508;5.502;2023-04-15T09:34:39;5.35;;;2.85;;
78787;SDS011;68131;52.508;5.502;2023-04-15T09:37:08;5.15;;;3.42;;
78787;SDS011;68131;52.508;5.502;2023-04-15T09:39:44;5.75;;;3.33;;
78787;SDS011;68131;52.508;5.502;2023-04-15T09:42:18;4.78;;;2.85;;
78787;SDS011;68131;52.508;5.502;2023-04-15T09:44:49;5.40;;;3.60;;
78787;SDS011;68131;52.508;5.502;2023-04-15T09:47:27;8.63;;;4.28;;
78787;SDS011;68131;52.508;5.502;2023-04-15T09:49:57;5.30;;;3.10;;
78787;SDS011;68131;52.508;5.502;2023-04-15T09:52:28;3.58;;;2.15;;
78787;SDS011;68131;52.508;5.502;2023-04-15T09:54:57;4.85;;;2.92;;
78787;SDS011;68131;52.508;5.502;2023-04-15T09:57:35;2.60;;;1.73;;
78787;SDS011;68131;52.508;5.502;2023-04-15T10:00:06;5.65;;;2.38;;
78787;SDS011;68131;52.508;5.502;2023-04-15T10:02:37;1.77;;;1.33;;
78787;SDS011;68131;52.508;5.502;2023-04-15T10:05:09;3.58;;;1.70;;
78787;SDS011;68131;52.508;5.502;2023-04-15T10:07:39;2.80;;;2.10;;
78787;SDS011;68131;52.508;5.502;2023-04-15T10:10:09;3.40;;;1.77;;
78787;SDS011;68131;52.508;5.502;2023-04-15T10:12:42;3.92;;;2.33;;
78787;SDS011;68131;52.508;5.502;2023-04-15T10:15:13;3.45;;;2.10;;
78787;SDS011;68131;52.508;5.502;2023-04-15T10:17:43;1.40;;;1.30;;
78787;SDS011;68131;52.508;5.502;2023-04-15T10:20:15;2.92;;;1.58;;
78787;SDS011;68131;52.508;5.502;2023-04-15T10:22:46;2.78;;;1.63;;
78787;SDS011;68131;52.508;5.502;2023-04-15T10:25:17;5.15;;;1.92;;
78787;SDS011;68131;52.508;5.502;2023-04-15T10:27:49;3.35;;;2.03;;
78787;SDS011;68131;52.508;5.502;2023-04-15T10:30:19;4.68;;;1.98;;
78787;SDS011;68131;52.508;5.502;2023-04-15T10:32:48;2.63;;;1.42;;
78787;SDS011;68131;52.508;5.502;2023-04-15T10:35:19;3.35;;;2.08;;
78787;SDS011;68131;52.508;5.502;2023-04-15T10:37:49;3.22;;;2.05;;
78787;SDS011;68131;52.508;5.502;2023-04-15T10:40:26;2.20;;;1.58;;
78787;SDS011;68131;52.508;5.502;2023-04-15T10:42:59;4.30;;;2.45;;
78787;SDS011;68131;52.508;5.502;2023-04-15T10:45:31;3.75;;;2.30;;
78787;SDS011;68131;52.508;5.502;2023-04-15T10:48:02;5.10;;;2.20;;
78787;SDS011;68131;52.508;5.502;2023-04-15T10:50:33;4.05;;;2.42;;
78787;SDS011;68131;52.508;5.502;2023-04-15T10:53:05;3.20;;;2.05;;
78787;SDS011;68131;52.508;5.502;2023-04-15T10:55:37;3.58;;;1.77;;
78787;SDS011;68131;52.508;5.502;2023-04-15T10:58:09;3.72;;;1.75;;
78787;SDS011;68131;52.508;5.502;2023-04-15T11:00:39;4.93;;;1.50;;
78787;SDS011;68131;52.508;5.502;2023-04-15T11:03:20;3.35;;;1.80;;
78787;SDS011;68131;52.508;5.502;2023-04-15T11:08:51;2.97;;;1.73;;
78787;SDS011;68131;52.508;5.502;2023-04-15T11:11:26;4.78;;;1.83;;
78787;SDS011;68131;52.508;5.502;2023-04-15T11:14:39;2.97;;;1.70;;
78787;SDS011;68131;52.508;5.502;2023-04-15T11:17:08;2.75;;;1.73;;
78787;SDS011;68131;52.508;5.502;2023-04-15T11:19:37;1.67;;;1.20;;
78787;SDS011;68131;52.508;5.502;2023-04-15T11:22:07;2.20;;;1.45;;
78787;SDS011;68131;52.508;5.502;2023-04-15T11:24:45;2.28;;;1.60;;
78787;SDS011;68131;52.508;5.502;2023-04-15T11:27:20;3.05;;;1.40;;
78787;SDS011;68131;52.508;5.502;2023-04-15T11:29:52;3.38;;;1.38;;
78787;SDS011;68131;52.508;5.502;2023-04-15T11:32:21;3.42;;;1.30;;
78787;SDS011;68131;52.508;5.502;2023-04-15T11:34:50;5.57;;;2.00;;
78787;SDS011;68131;52.508;5.502;2023-04-15T11:37:26;2.55;;;1.52;;
78787;SDS011;68131;52.508;5.502;2023-04-15T11:39:56;3.13;;;2.00;;
78787;SDS011;68131;52.508;5.502;2023-04-15T11:42:25;2.75;;;1.33;;
78787;SDS011;68131;52.508;5.502;2023-04-15T11:45:07;2.22;;;1.23;;
78787;SDS011;68131;52.508;5.502;2023-04-15T11:47:36;1.85;;;1.42;;
78787;SDS011;68131;52.508;5.502;2023-04-15T11:50:13;3.53;;;1.63;;
78787;SDS011;68131;52.508;5.502;2023-04-15T11:52:51;4.32;;;1.33;;
78787;SDS011;68131;52.508;5.502;2023-04-15T11:55:21;4.32;;;1.73;;
78787;SDS011;68131;52.508;5.502;2023-04-15T11:58:04;2.92;;;1.33;;
78787;SDS011;68131;52.508;5.502;2023-04-15T12:00:39;1.48;;;1.38;;
78787;SDS011;68131;52.508;5.502;2023-04-15T12:03:11;5.35;;;1.50;;
78787;SDS011;68131;52.508;5.502;2023-04-15T12:08:48;3.40;;;1.42;;
78787;SDS011;68131;52.508;5.502;2023-04-15T12:11:27;2.58;;;1.50;;
78787;SDS011;68131;52.508;5.502;2023-04-15T12:14:01;3.08;;;1.48;;
78787;SDS011;68131;52.508;5.502;2023-04-15T12:16:35;1.35;;;1.05;;
78787;SDS011;68131;52.508;5.502;2023-04-15T12:19:06;3.67;;;1.40;;
78787;SDS011;68131;52.508;5.502;2023-04-15T12:21:38;2.03;;;1.17;;
78787;SDS011;68131;52.508;5.502;2023-04-15T12:24:09;1.70;;;1.20;;
78787;SDS011;68131;52.508;5.502;2023-04-15T12:26:42;1.27;;;0.73;;
78787;SDS011;68131;52.508;5.502;2023-04-15T12:29:13;2.47;;;0.90;;
78787;SDS011;68131;52.508;5.502;2023-04-15T12:31:50;2.38;;;1.00;;
78787;SDS011;68131;52.508;5.502;2023-04-15T12:34:27;3.75;;;1.00;;
78787;SDS011;68131;52.508;5.502;2023-04-15T12:36:58;2.00;;;0.90;;
78787;SDS011;68131;52.508;5.502;2023-04-15T12:39:30;1.15;;;0.80;;
78787;SDS011;68131;52.508;5.502;2023-04-15T12:42:00;3.05;;;1.13;;
78787;SDS011;68131;52.508;5.502;2023-04-15T12:44:30;1.20;;;0.70;;
78787;SDS011;68131;52.508;5.502;2023-04-15T12:47:04;3.38;;;0.80;;
78787;SDS011;68131;52.508;5.502;2023-04-15T12:49:34;2.47;;;0.98;;
78787;SDS011;68131;52.508;5.502;2023-04-15T12:52:04;1.20;;;0.70;;
78787;SDS011;68131;52.508;5.502;2023-04-15T12:54:33;1.67;;;0.70;;
78787;SDS011;68131;52.508;5.502;2023-04-15T12:57:02;1.48;;;0.70;;
78787;SDS011;68131;52.508;5.502;2023-04-15T12:59:32;1.27;;;0.70;;
78787;SDS011;68131;52.508;5.502;2023-04-15T13:02:03;2.42;;;0.80;;
78787;SDS011;68131;52.508;5.502;2023-04-15T13:04:33;1.92;;;0.80;;
78787;SDS011;68131;52.508;5.502;2023-04-15T13:07:02;1.90;;;0.90;;
78787;SDS011;68131;52.508;5.502;2023-04-15T13:09:31;2.65;;;1.02;;
78787;SDS011;68131;52.508;5.502;2023-04-15T13:12:00;1.30;;;0.90;;
78787;SDS011;68131;52.508;5.502;2023-04-15T13:14:30;1.42;;;0.82;;
78787;SDS011;68131;52.508;5.502;2023-04-15T13:16:59;2.90;;;1.10;;
78787;SDS011;68131;52.508;5.502;2023-04-15T13:22:06;2.33;;;0.90;;
78787;SDS011;68131;52.508;5.502;2023-04-15T13:24:36;2.47;;;1.20;;
78787;SDS011;68131;52.508;5.502;2023-04-15T13:27:06;3.70;;;1.10;;
78787;SDS011;68131;52.508;5.502;2023-04-15T13:29:35;1.58;;;0.75;;
78787;SDS011;68131;52.508;5.502;2023-04-15T13:32:05;2.40;;;1.20;;
78787;SDS011;68131;52.508;5.502;2023-04-15T13:34:36;3.38;;;1.33;;
78787;SDS011;68131;52.508;5.502;2023-04-15T13:37:05;6.72;;;1.50;;
78787;SDS011;68131;52.508;5.502;2023-04-15T13:39:35;1.95;;;1.02;;
78787;SDS011;68131;52.508;5.502;2023-04-15T13:42:04;4.30;;;1.30;;
78787;SDS011;68131;52.508;5.502;2023-04-15T13:44:33;5.25;;;1.10;;
78787;SDS011;68131;52.508;5.502;2023-04-15T13:47:03;3.20;;;1.40;;
78787;SDS011;68131;52.508;5.502;2023-04-15T13:49:32;6.03;;;1.60;;
78787;SDS011;68131;52.508;5.502;2023-04-15T13:52:03;5.07;;;1.40;;
78787;SDS011;68131;52.508;5.502;2023-04-15T13:54:33;2.97;;;0.93;;
78787;SDS011;68131;52.508;5.502;2023-04-15T13:57:02;1.90;;;0.93;;
78787;SDS011;68131;52.508;5.502;2023-04-15T13:59:31;2.30;;;1.02;;
78787;SDS011;68131;52.508;5.502;2023-04-15T14:02:01;1.58;;;0.80;;
78787;SDS011;68131;52.508;5.502;2023-04-15T14:04:30;2.83;;;0.60;;
78787;SDS011;68131;52.508;5.502;2023-04-15T14:06:59;3.75;;;1.25;;
78787;SDS011;68131;52.508;5.502;2023-04-15T14:09:31;3.78;;;1.13;;
78787;SDS011;68131;52.508;5.502;2023-04-15T14:12:00;3.72;;;1.02;;
78787;SDS011;68131;52.508;5.502;2023-04-15T14:14:29;11.40;;;4.55;;
78787;SDS011;68131;52.508;5.502;2023-04-15T14:16:58;4.10;;;0.80;;
78787;SDS011;68131;52.508;5.502;2023-04-15T14:19:28;2.08;;;0.80;;
78787;SDS011;68131;52.508;5.502;2023-04-15T14:21:58;3.75;;;0.88;;
78787;SDS011;68131;52.508;5.502;2023-04-15T14:24:30;2.72;;;0.60;;
78787;SDS011;68131;52.508;5.502;2023-04-15T14:26:59;3.40;;;0.85;;
78787;SDS011;68131;52.508;5.502;2023-04-15T14:29:28;4.03;;;0.85;;
78787;SDS011;68131;52.508;5.502;2023-04-15T14:31:58;1.77;;;0.57;;
78787;SDS011;68131;52.508;5.502;2023-04-15T14:34:27;5.55;;;1.42;;
78787;SDS011;68131;52.508;5.502;2023-04-15T14:36:56;1.73;;;0.77;;
78787;SDS011;68131;52.508;5.502;2023-04-15T14:39:25;2.05;;;0.70;;
78787;SDS011;68131;52.508;5.502;2023-04-15T14:41:57;3.35;;;1.08;;
78787;SDS011;68131;52.508;5.502;2023-04-15T14:44:26;7.22;;;1.33;;
78787;SDS011;68131;52.508;5.502;2023-04-15T14:46:55;3.38;;;0.85;;
78787;SDS011;68131;52.508;5.502;2023-04-15T14:49:24;2.42;;;0.90;;
78787;SDS011;68131;52.508;5.502;2023-04-15T14:51:53;1.90;;;0.90;;
78787;SDS011;68131;52.508;5.502;2023-04-15T14:54:22;11.23;;;1.05;;
78787;SDS011;68131;52.508;5.502;2023-04-15T14:56:51;1.23;;;0.50;;
78787;SDS011;68131;52.508;5.502;2023-04-15T14:59:23;4.82;;;0.50;;
78787;SDS011;68131;52.508;5.502;2023-04-15T15:01:52;3.30;;;0.75;;
78787;SDS011;68131;52.508;5.502;2023-04-15T15:04:21;2.05;;;0.75;;
78787;SDS011;68131;52.508;5.502;2023-04-15T15:06:50;5.45;;;0.98;;
78787;SDS011;68131;52.508;5.502;2023-04-15T15:09:20;5.78;;;1.15;;
78787;SDS011;68131;52.508;5.502;2023-04-15T15:11:49;7.10;;;1.17;;
78787;SDS011;68131;52.508;5.502;2023-04-15T15:14:18;7.05;;;0.68;;
78787;SDS011;68131;52.508;5.502;2023-04-15T15:16:50;4.53;;;0.80;;